KTRK

Truckee-Tahoe Airport

Truckee, California, USA
KTRK 151120Z 1512/1612 VRB03KT P6SM SCT150 FM152000 25010G18KT P6SM FEW100 FM160200 25004KT P6SM FEW200
Issued Valid From Valid To
Aug-15 @ 11:20 UTC
(an hour ago)
Aug-15 @ 12:00 UTC
(40 minutes ago)
Aug-16 @ 12:00 UTC
(in 23 hours)
Aug-15 @ 12:00 to Aug-15 @ 20:00
KTRK 151120Z 1512/1612 VRB03KT P6SM SCT150
Wind Visibility Clouds
Variable at 3 knots Greater than 6 miles
  • Scattered at 15,000' AGL
From Aug-15 @ 20:00 to Aug-16 @ 02:00
FM152000 25010G18KT P6SM FEW100
Wind Visibility Clouds
250° at 10 knots
 Gusting to 18 knots
Greater than 6 miles
  • Few at 10,000' AGL
From Aug-16 @ 02:00 to Aug-16 @ 12:00
FM160200 25004KT P6SM FEW200
Wind Visibility Clouds
250° at 4 knots Greater than 6 miles
  • Few at 20,000' AGL
KTRK 151120Z 1512/1612 VRB03KT P6SM SCT150 FM152000 25010G18KT P6SM FEW100 FM160200 25004KT P6SM FEW200
Issued Aug-15 @ 11:20 UTC
(an hour ago)
Valid From Aug-15 @ 12:00 UTC
(40 minutes ago)
Valid To Aug-16 @ 12:00 UTC
(in 23 hours)
Aug-15 @ 12:00 - Aug-15 @ 20:00
Wind Visibility
Variable at 3 knots Greater than 6 miles
Clouds
  • Scattered at 15,000' AGL
From Aug-15 @ 20:00 - Aug-16 @ 02:00
Wind Visibility
250° at 10 knots
 Gusting to 18 knots
Greater than 6 miles
Clouds
  • Few at 10,000' AGL
From Aug-16 @ 02:00 - Aug-16 @ 12:00
Wind Visibility
250° at 4 knots Greater than 6 miles
Clouds
  • Few at 20,000' AGL